CheckWX is a tool to help pilots better visualize weather data.  It is not intended as a substitute for an official pre-flight weather briefing.

07:09:19 UTC

KCGI TAF
Cape Girardeau Regional Airport
Cape Girardeau, Missouri, USA
KCGI 170520Z 1706/1806 VRB03KT P6SM VCSH FEW020 BKN100 FM171700 22007KT P6SM VCSH SCT025 BKN070 FM180100 VRB04KT P6SM SCT020 BKN050

Jun-17@
06:00 UTC

Jun-17 @ 06:00 UTC

Jun-17@
17:00 UTC

Jun-17 @ 17:00 UTC

KCGI 170520Z 1706/1806 VRB03KT P6SM VCSH FEW020 BKN100
Wind
  • Variable at 3 KTS
Cloud Levels
  • Few at 2,000' AGL
  • Broken at 10,000' AGL

Jun-17@
17:00 UTC

Jun-17 @ 17:00 UTC

Jun-18@
01:00 UTC

Jun-18 @ 01:00 UTC

FM171700 22007KT P6SM VCSH SCT025 BKN070

From

From Standard forecast or significant change

Wind
  • 220° at 7 KTS
Cloud Levels
  • Scattered at 2,500' AGL
  • Broken at 7,000' AGL

Jun-18@
01:00 UTC

Jun-18 @ 01:00 UTC

Jun-18@
06:00 UTC

Jun-18 @ 06:00 UTC

FM180100 VRB04KT P6SM SCT020 BKN050

From

From Standard forecast or significant change

Wind
  • Variable at 4 KTS
Cloud Levels
  • Scattered at 2,000' AGL
  • Broken at 5,000' AGL